sensor_id;sensor_type;location;lat;lon;timestamp;pressure;altitude;pressure_sealevel;temperature;humidity
77303;BME280;66363;49.828;7.856;2023-04-06T00:02:09;100490.03;;;0.31;72.11
77303;BME280;66363;49.828;7.856;2023-04-06T00:04:35;100494.63;;;0.22;72.65
77303;BME280;66363;49.828;7.856;2023-04-06T00:07:00;100490.25;;;0.22;72.43
77303;BME280;66363;49.828;7.856;2023-04-06T00:09:26;100484.28;;;0.17;72.23
77303;BME280;66363;49.828;7.856;2023-04-06T00:11:52;100480.88;;;0.14;72.29
77303;BME280;66363;49.828;7.856;2023-04-06T00:14:17;100482.63;;;0.13;72.92
77303;BME280;66363;49.828;7.856;2023-04-06T00:16:43;100487.16;;;0.05;72.83
77303;BME280;66363;49.828;7.856;2023-04-06T00:19:10;100487.00;;;0.11;73.01
77303;BME280;66363;49.828;7.856;2023-04-06T00:21:36;100475.88;;;0.03;73.08
77303;BME280;66363;49.828;7.856;2023-04-06T00:24:02;100474.38;;;-0.07;73.24
77303;BME280;66363;49.828;7.856;2023-04-06T00:26:27;100481.25;;;-0.03;73.45
77303;BME280;66363;49.828;7.856;2023-04-06T00:28:53;100483.16;;;-0.11;74.09
77303;BME280;66363;49.828;7.856;2023-04-06T00:31:19;100471.09;;;-0.17;73.94
77303;BME280;66363;49.828;7.856;2023-04-06T00:33:44;100465.06;;;-0.19;74.21
77303;BME280;66363;49.828;7.856;2023-04-06T00:36:11;100464.25;;;-0.22;74.25
77303;BME280;66363;49.828;7.856;2023-04-06T00:38:37;100467.69;;;-0.20;74.56
77303;BME280;66363;49.828;7.856;2023-04-06T00:41:03;100460.84;;;-0.26;74.51
77303;BME280;66363;49.828;7.856;2023-04-06T00:43:29;100462.63;;;-0.26;74.83
77303;BME280;66363;49.828;7.856;2023-04-06T00:45:55;100454.81;;;-0.26;75.39
77303;BME280;66363;49.828;7.856;2023-04-06T00:48:20;100456.50;;;-0.25;74.89
77303;BME280;66363;49.828;7.856;2023-04-06T00:50:46;100447.88;;;-0.27;75.05
77303;BME280;66363;49.828;7.856;2023-04-06T00:53:13;100450.50;;;-0.27;74.82
77303;BME280;66363;49.828;7.856;2023-04-06T00:55:39;100449.66;;;-0.29;74.59
77303;BME280;66363;49.828;7.856;2023-04-06T00:58:05;100454.16;;;-0.38;74.53
77303;BME280;66363;49.828;7.856;2023-04-06T01:00:31;100450.66;;;-0.37;74.51
77303;BME280;66363;49.828;7.856;2023-04-06T01:02:57;100448.94;;;-0.38;74.69
77303;BME280;66363;49.828;7.856;2023-04-06T01:05:23;100446.56;;;-0.48;75.47
77303;BME280;66363;49.828;7.856;2023-04-06T01:07:48;100447.41;;;-0.48;75.35
77303;BME280;66363;49.828;7.856;2023-04-06T01:10:24;100435.31;;;-0.52;74.70
77303;BME280;66363;49.828;7.856;2023-04-06T01:12:49;100441.34;;;-0.48;74.44
77303;BME280;66363;49.828;7.856;2023-04-06T01:15:15;100433.53;;;-0.48;74.62
77303;BME280;66363;49.828;7.856;2023-04-06T01:17:41;100437.00;;;-0.49;74.61
77303;BME280;66363;49.828;7.856;2023-04-06T01:20:07;100439.75;;;-0.54;75.78
77303;BME280;66363;49.828;7.856;2023-04-06T01:22:34;100430.34;;;-0.62;75.21
77303;BME280;66363;49.828;7.856;2023-04-06T01:25:00;100442.59;;;-0.66;75.79
77303;BME280;66363;49.828;7.856;2023-04-06T01:27:26;100434.78;;;-0.68;76.00
77303;BME280;66363;49.828;7.856;2023-04-06T01:29:51;100434.78;;;-0.68;75.77
77303;BME280;66363;49.828;7.856;2023-04-06T01:32:17;100439.13;;;-0.66;76.48
77303;BME280;66363;49.828;7.856;2023-04-06T01:34:43;100427.88;;;-0.69;76.32
77303;BME280;66363;49.828;7.856;2023-04-06T01:37:08;100440.03;;;-0.69;76.45
77303;BME280;66363;49.828;7.856;2023-04-06T01:39:35;100428.03;;;-0.78;77.03
77303;BME280;66363;49.828;7.856;2023-04-06T01:42:01;100432.50;;;-0.83;77.53
77303;BME280;66363;49.828;7.856;2023-04-06T01:44:27;100422.94;;;-0.82;77.08
77303;BME280;66363;49.828;7.856;2023-04-06T01:46:53;100422.16;;;-0.87;77.05
77303;BME280;66363;49.828;7.856;2023-04-06T01:49:18;100420.44;;;-0.88;77.63
77303;BME280;66363;49.828;7.856;2023-04-06T01:51:44;100421.34;;;-0.89;77.36
77303;BME280;66363;49.828;7.856;2023-04-06T01:54:10;100413.59;;;-0.94;78.19
77303;BME280;66363;49.828;7.856;2023-04-06T01:56:37;100413.72;;;-1.00;77.05
77303;BME280;66363;49.828;7.856;2023-04-06T01:59:02;100414.69;;;-1.04;77.95
77303;BME280;66363;49.828;7.856;2023-04-06T02:01:28;100409.41;;;-1.03;77.80
77303;BME280;66363;49.828;7.856;2023-04-06T02:03:53;100412.88;;;-1.02;78.23
77303;BME280;66363;49.828;7.856;2023-04-06T02:06:19;100410.38;;;-1.07;77.59
77303;BME280;66363;49.828;7.856;2023-04-06T02:08:45;100415.63;;;-1.08;77.69
77303;BME280;66363;49.828;7.856;2023-04-06T02:11:11;100413.03;;;-1.10;77.67
77303;BME280;66363;49.828;7.856;2023-04-06T02:13:38;100411.28;;;-1.08;77.44
77303;BME280;66363;49.828;7.856;2023-04-06T02:16:04;100406.19;;;-1.15;77.22
77303;BME280;66363;49.828;7.856;2023-04-06T02:18:30;100409.75;;;-1.19;77.13
77303;BME280;66363;49.828;7.856;2023-04-06T02:20:56;100411.34;;;-1.12;77.22
77303;BME280;66363;49.828;7.856;2023-04-06T02:23:21;100406.16;;;-1.14;77.36
77303;BME280;66363;49.828;7.856;2023-04-06T02:25:47;100407.09;;;-1.18;77.36
77303;BME280;66363;49.828;7.856;2023-04-06T02:28:13;100414.00;;;-1.15;77.62
77303;BME280;66363;49.828;7.856;2023-04-06T02:30:40;100410.53;;;-1.14;77.23
77303;BME280;66363;49.828;7.856;2023-04-06T02:33:05;100416.63;;;-1.17;76.94
77303;BME280;66363;49.828;7.856;2023-04-06T02:35:31;100408.81;;;-1.17;77.13
77303;BME280;66363;49.828;7.856;2023-04-06T02:37:57;100411.47;;;-1.18;76.99
77303;BME280;66363;49.828;7.856;2023-04-06T02:40:23;100404.59;;;-1.22;77.53
77303;BME280;66363;49.828;7.856;2023-04-06T02:42:48;100399.25;;;-1.15;77.24
77303;BME280;66363;49.828;7.856;2023-04-06T02:45:14;100397.53;;;-1.16;77.89
77303;BME280;66363;49.828;7.856;2023-04-06T02:47:41;100408.03;;;-1.20;77.84
77303;BME280;66363;49.828;7.856;2023-04-06T02:50:07;100407.03;;;-1.13;77.55
77303;BME280;66363;49.828;7.856;2023-04-06T02:52:33;100404.53;;;-1.19;77.80
77303;BME280;66363;49.828;7.856;2023-04-06T02:54:59;100406.31;;;-1.23;78.41
77303;BME280;66363;49.828;7.856;2023-04-06T02:57:24;100397.69;;;-1.25;77.65
77303;BME280;66363;49.828;7.856;2023-04-06T02:59:51;100401.09;;;-1.21;77.30
77303;BME280;66363;49.828;7.856;2023-04-06T03:02:16;100405.38;;;-1.19;77.70
77303;BME280;66363;49.828;7.856;2023-04-06T03:04:44;100398.38;;;-1.15;77.64
77303;BME280;66363;49.828;7.856;2023-04-06T03:07:10;100395.88;;;-1.21;77.37
77303;BME280;66363;49.828;7.856;2023-04-06T03:09:36;100389.91;;;-1.26;78.30
77303;BME280;66363;49.828;7.856;2023-04-06T03:12:02;100388.28;;;-1.30;78.31
77303;BME280;66363;49.828;7.856;2023-04-06T03:14:28;100398.84;;;-1.41;78.43
77303;BME280;66363;49.828;7.856;2023-04-06T03:16:54;100396.22;;;-1.40;78.25
77303;BME280;66363;49.828;7.856;2023-04-06T03:19:20;100399.72;;;-1.41;78.51
77303;BME280;66363;49.828;7.856;2023-04-06T03:21:47;100397.19;;;-1.45;78.64
77303;BME280;66363;49.828;7.856;2023-04-06T03:24:13;100398.88;;;-1.43;78.70
77303;BME280;66363;49.828;7.856;2023-04-06T03:26:38;100398.06;;;-1.46;78.67
77303;BME280;66363;49.828;7.856;2023-04-06T03:29:04;100398.13;;;-1.49;78.28
77303;BME280;66363;49.828;7.856;2023-04-06T03:31:30;100397.31;;;-1.53;78.63
77303;BME280;66363;49.828;7.856;2023-04-06T03:33:55;100393.81;;;-1.52;78.92
77303;BME280;66363;49.828;7.856;2023-04-06T03:36:21;100404.38;;;-1.59;79.19
77303;BME280;66363;49.828;7.856;2023-04-06T03:38:48;100406.09;;;-1.58;78.64
77303;BME280;66363;49.828;7.856;2023-04-06T03:41:14;100407.03;;;-1.62;78.93
77303;BME280;66363;49.828;7.856;2023-04-06T03:43:39;100408.72;;;-1.58;79.58
77303;BME280;66363;49.828;7.856;2023-04-06T03:46:05;100408.00;;;-1.68;79.17
77303;BME280;66363;49.828;7.856;2023-04-06T03:48:31;100407.06;;;-1.64;79.16
77303;BME280;66363;49.828;7.856;2023-04-06T03:50:56;100406.16;;;-1.61;79.16
77303;BME280;66363;49.828;7.856;2023-04-06T03:53:22;100410.53;;;-1.65;79.33
77303;BME280;66363;49.828;7.856;2023-04-06T03:55:49;100408.84;;;-1.67;79.39
77303;BME280;66363;49.828;7.856;2023-04-06T03:58:15;100410.53;;;-1.63;79.39
77303;BME280;66363;49.828;7.856;2023-04-06T04:00:40;100418.28;;;-1.60;79.93
77303;BME280;66363;49.828;7.856;2023-04-06T04:03:06;100415.72;;;-1.63;79.71
77303;BME280;66363;49.828;7.856;2023-04-06T04:05:32;100417.47;;;-1.65;80.50
77303;BME280;66363;49.828;7.856;2023-04-06T04:07:57;100417.50;;;-1.67;79.84
77303;BME280;66363;49.828;7.856;2023-04-06T04:10:23;100426.25;;;-1.73;80.10
77303;BME280;66363;49.828;7.856;2023-04-06T04:12:50;100420.25;;;-1.76;81.02
77303;BME280;66363;49.828;7.856;2023-04-06T04:15:16;100423.66;;;-1.73;80.31
77303;BME280;66363;49.828;7.856;2023-04-06T04:17:41;100423.63;;;-1.69;80.26
77303;BME280;66363;49.828;7.856;2023-04-06T04:20:08;100432.31;;;-1.71;79.95
77303;BME280;66363;49.828;7.856;2023-04-06T04:22:33;100428.88;;;-1.73;80.33
77303;BME280;66363;49.828;7.856;2023-04-06T04:24:59;100433.25;;;-1.76;80.46
77303;BME280;66363;49.828;7.856;2023-04-06T04:27:25;100429.84;;;-1.80;80.93
77303;BME280;66363;49.828;7.856;2023-04-06T04:29:52;100436.72;;;-1.77;80.79
77303;BME280;66363;49.828;7.856;2023-04-06T04:32:17;100447.19;;;-1.80;80.90
77303;BME280;66363;49.828;7.856;2023-04-06T04:34:43;100437.78;;;-1.87;81.83
77303;BME280;66363;49.828;7.856;2023-04-06T04:37:08;100435.19;;;-1.89;81.60
77303;BME280;66363;49.828;7.856;2023-04-06T04:39:34;100443.91;;;-1.91;81.25
77303;BME280;66363;49.828;7.856;2023-04-06T04:42:00;100437.91;;;-1.98;80.87
77303;BME280;66363;49.828;7.856;2023-04-06T04:44:25;100435.28;;;-1.95;81.19
77303;BME280;66363;49.828;7.856;2023-04-06T04:46:53;100431.91;;;-2.01;81.00
77303;BME280;66363;49.828;7.856;2023-04-06T04:49:18;100433.59;;;-1.99;81.17
77303;BME280;66363;49.828;7.856;2023-04-06T04:51:44;100436.19;;;-1.97;81.37
77303;BME280;66363;49.828;7.856;2023-04-06T04:54:10;100440.56;;;-2.01;81.23
77303;BME280;66363;49.828;7.856;2023-04-06T04:56:35;100437.97;;;-2.02;81.76
77303;BME280;66363;49.828;7.856;2023-04-06T04:59:01;100434.53;;;-2.03;81.31
77303;BME280;66363;49.828;7.856;2023-04-06T05:01:27;100437.25;;;-2.09;81.94
77303;BME280;66363;49.828;7.856;2023-04-06T05:03:54;100437.16;;;-2.05;82.15
77303;BME280;66363;49.828;7.856;2023-04-06T05:06:19;100443.19;;;-2.04;81.50
77303;BME280;66363;49.828;7.856;2023-04-06T05:08:45;100438.03;;;-2.06;81.03
77303;BME280;66363;49.828;7.856;2023-04-06T05:11:11;100437.13;;;-2.03;80.75
77303;BME280;66363;49.828;7.856;2023-04-06T05:13:37;100439.84;;;-2.11;80.82
77303;BME280;66363;49.828;7.856;2023-04-06T05:16:02;100442.34;;;-2.05;80.61
77303;BME280;66363;49.828;7.856;2023-04-06T05:18:28;100443.25;;;-2.07;81.00
77303;BME280;66363;49.828;7.856;2023-04-06T05:20:55;100446.59;;;-1.99;81.01
77303;BME280;66363;49.828;7.856;2023-04-06T05:23:21;100434.53;;;-2.03;81.01
77303;BME280;66363;49.828;7.856;2023-04-06T05:25:47;100439.66;;;-1.97;80.74
77303;BME280;66363;49.828;7.856;2023-04-06T05:28:12;100444.03;;;-2.00;80.97
77303;BME280;66363;49.828;7.856;2023-04-06T05:30:38;100444.81;;;-1.95;80.72
77303;BME280;66363;49.828;7.856;2023-04-06T05:33:04;100442.16;;;-1.91;80.44
77303;BME280;66363;49.828;7.856;2023-04-06T05:35:29;100440.34;;;-1.86;80.17
77303;BME280;66363;49.828;7.856;2023-04-06T05:37:57;100444.69;;;-1.85;79.72
77303;BME280;66363;49.828;7.856;2023-04-06T05:40:22;100440.34;;;-1.86;79.29
77303;BME280;66363;49.828;7.856;2023-04-06T05:42:48;100448.91;;;-1.81;79.20
77303;BME280;66363;49.828;7.856;2023-04-06T05:45:14;100448.84;;;-1.75;79.24
77303;BME280;66363;49.828;7.856;2023-04-06T05:47:39;100454.00;;;-1.72;79.25
77303;BME280;66363;49.828;7.856;2023-04-06T05:50:06;100445.44;;;-1.80;79.17
77303;BME280;66363;49.828;7.856;2023-04-06T05:52:31;100446.25;;;-1.76;79.41
77303;BME280;66363;49.828;7.856;2023-04-06T05:54:59;100452.00;;;-1.56;78.55
77303;BME280;66363;49.828;7.856;2023-04-06T05:57:24;100444.94;;;-1.48;77.98
77303;BME280;66363;49.828;7.856;2023-04-06T05:59:50;100457.75;;;-1.35;78.07
77303;BME280;66363;49.828;7.856;2023-04-06T06:02:16;100460.34;;;-1.34;77.62
77303;BME280;66363;49.828;7.856;2023-04-06T06:04:41;100461.03;;;-1.26;77.54
77303;BME280;66363;49.828;7.856;2023-04-06T06:07:07;100459.31;;;-1.25;77.26
77303;BME280;66363;49.828;7.856;2023-04-06T06:09:32;100456.44;;;-1.10;76.96
77303;BME280;66363;49.828;7.856;2023-04-06T06:12:00;100457.97;;;-0.98;76.56
77303;BME280;66363;49.828;7.856;2023-04-06T06:14:26;100455.34;;;-0.98;76.03
77303;BME280;66363;49.828;7.856;2023-04-06T06:16:51;100460.47;;;-0.94;76.10
77303;BME280;66363;49.828;7.856;2023-04-06T06:19:17;100457.69;;;-0.83;76.20
77303;BME280;66363;49.828;7.856;2023-04-06T06:21:42;100456.81;;;-0.82;75.93
77303;BME280;66363;49.828;7.856;2023-04-06T06:24:08;100457.22;;;-0.59;74.79
77303;BME280;66363;49.828;7.856;2023-04-06T06:26:34;100461.31;;;-0.47;74.77
77303;BME280;66363;49.828;7.856;2023-04-06T06:29:01;100460.97;;;-0.30;73.72
77303;BME280;66363;49.828;7.856;2023-04-06T06:31:26;100457.25;;;-0.20;73.52
77303;BME280;66363;49.828;7.856;2023-04-06T06:33:52;100460.50;;;-0.09;72.63
77303;BME280;66363;49.828;7.856;2023-04-06T06:36:18;100453.50;;;-0.06;72.65
77303;BME280;66363;49.828;7.856;2023-04-06T06:38:44;100465.56;;;-0.02;71.79
77303;BME280;66363;49.828;7.856;2023-04-06T06:41:10;100466.56;;;-0.07;72.17
77303;BME280;66363;49.828;7.856;2023-04-06T06:43:35;100465.31;;;0.09;71.99
77303;BME280;66363;49.828;7.856;2023-04-06T06:46:03;100461.34;;;0.30;71.39
77303;BME280;66363;49.828;7.856;2023-04-06T06:48:29;100461.91;;;0.44;70.22
77303;BME280;66363;49.828;7.856;2023-04-06T06:50:55;100455.38;;;0.62;69.93
77303;BME280;66363;49.828;7.856;2023-04-06T06:53:21;100463.06;;;0.68;69.84
77303;BME280;66363;49.828;7.856;2023-04-06T06:55:46;100456.41;;;0.89;68.90
77303;BME280;66363;49.828;7.856;2023-04-06T06:58:12;100454.41;;;1.00;68.49
77303;BME280;66363;49.828;7.856;2023-04-06T07:00:37;100453.78;;;1.23;67.83
77303;BME280;66363;49.828;7.856;2023-04-06T07:03:04;100456.53;;;1.49;67.24
77303;BME280;66363;49.828;7.856;2023-04-06T07:05:30;100449.81;;;1.70;66.56
77303;BME280;66363;49.828;7.856;2023-04-06T07:07:56;100450.75;;;1.97;65.26
77303;BME280;66363;49.828;7.856;2023-04-06T07:10:22;100445.63;;;2.22;63.51
77303;BME280;66363;49.828;7.856;2023-04-06T07:12:48;100449.84;;;2.54;62.78
77303;BME280;66363;49.828;7.856;2023-04-06T07:15:13;100443.69;;;2.81;62.62
77303;BME280;66363;49.828;7.856;2023-04-06T07:17:39;100447.44;;;2.99;61.39
77303;BME280;66363;49.828;7.856;2023-04-06T07:20:07;100445.84;;;3.20;61.50
77303;BME280;66363;49.828;7.856;2023-04-06T07:22:32;100441.09;;;3.31;60.27
77303;BME280;66363;49.828;7.856;2023-04-06T07:24:58;100445.38;;;3.57;59.98
77303;BME280;66363;49.828;7.856;2023-04-06T07:27:24;100449.81;;;4.01;58.24
77303;BME280;66363;49.828;7.856;2023-04-06T07:29:49;100449.66;;;4.28;57.74
77303;BME280;66363;49.828;7.856;2023-04-06T07:32:15;100447.56;;;4.58;56.82
77303;BME280;66363;49.828;7.856;2023-04-06T07:34:41;100447.47;;;5.01;55.44
77303;BME280;66363;49.828;7.856;2023-04-06T07:37:08;100450.16;;;5.20;53.72
77303;BME280;66363;49.828;7.856;2023-04-06T07:39:33;100448.00;;;5.69;52.77
77303;BME280;66363;49.828;7.856;2023-04-06T07:41:59;100434.38;;;6.17;51.42
77303;BME280;66363;49.828;7.856;2023-04-06T07:44:25;100440.53;;;6.71;49.92
77303;BME280;66363;49.828;7.856;2023-04-06T07:46:50;100439.44;;;7.27;48.14
77303;BME280;66363;49.828;7.856;2023-04-06T07:49:16;100433.84;;;7.81;47.50
77303;BME280;66363;49.828;7.856;2023-04-06T07:51:42;100433.91;;;8.44;44.89
77303;BME280;66363;49.828;7.856;2023-04-06T07:54:09;100429.41;;;9.06;45.06
77303;BME280;66363;49.828;7.856;2023-04-06T07:56:34;100424.34;;;9.46;43.15
77303;BME280;66363;49.828;7.856;2023-04-06T07:59:00;100432.81;;;10.22;41.16
77303;BME280;66363;49.828;7.856;2023-04-06T08:01:27;100436.34;;;9.94;43.06
77303;BME280;66363;49.828;7.856;2023-04-06T08:03:53;100431.91;;;10.90;41.40
77303;BME280;66363;49.828;7.856;2023-04-06T08:06:19;100425.91;;;11.64;38.70
77303;BME280;66363;49.828;7.856;2023-04-06T08:08:44;100433.03;;;11.88;38.58
77303;BME280;66363;49.828;7.856;2023-04-06T08:11:11;100429.03;;;12.43;35.84
77303;BME280;66363;49.828;7.856;2023-04-06T08:13:37;100431.34;;;12.96;34.51
77303;BME280;66363;49.828;7.856;2023-04-06T08:16:03;100430.03;;;13.81;34.58
77303;BME280;66363;49.828;7.856;2023-04-06T08:18:29;100427.25;;;13.93;34.11
77303;BME280;66363;49.828;7.856;2023-04-06T08:20:54;100428.78;;;14.41;32.47
77303;BME280;66363;49.828;7.856;2023-04-06T08:23:20;100427.41;;;14.57;31.01
77303;BME280;66363;49.828;7.856;2023-04-06T08:25:46;100421.88;;;14.49;32.43
77303;BME280;66363;49.828;7.856;2023-04-06T08:28:13;100424.28;;;15.47;31.29
77303;BME280;66363;49.828;7.856;2023-04-06T08:30:39;100427.41;;;16.72;30.15
77303;BME280;66363;49.828;7.856;2023-04-06T08:33:05;100424.75;;;17.01;28.22
77303;BME280;66363;49.828;7.856;2023-04-06T08:35:31;100424.56;;;17.32;27.87
77303;BME280;66363;49.828;7.856;2023-04-06T08:37:57;100419.97;;;16.85;28.71
77303;BME280;66363;49.828;7.856;2023-04-06T08:40:22;100417.75;;;17.47;26.38
77303;BME280;66363;49.828;7.856;2023-04-06T08:42:50;100416.47;;;17.41;28.77
77303;BME280;66363;49.828;7.856;2023-04-06T08:45:18;100414.97;;;17.39;27.51
77303;BME280;66363;49.828;7.856;2023-04-06T08:47:45;100415.28;;;17.73;27.78
77303;BME280;66363;49.828;7.856;2023-04-06T08:50:12;100416.94;;;18.38;26.44
77303;BME280;66363;49.828;7.856;2023-04-06T08:52:38;100416.09;;;18.65;25.33
77303;BME280;66363;49.828;7.856;2023-04-06T08:55:05;100417.94;;;19.26;24.41
77303;BME280;66363;49.828;7.856;2023-04-06T08:57:31;100412.22;;;19.03;26.38
77303;BME280;66363;49.828;7.856;2023-04-06T08:59:57;100414.78;;;19.30;24.42
77303;BME280;66363;49.828;7.856;2023-04-06T09:02:27;100412.25;;;19.73;25.48
77303;BME280;66363;49.828;7.856;2023-04-06T09:04:53;100420.00;;;19.32;26.18
77303;BME280;66363;49.828;7.856;2023-04-06T09:07:19;100412.03;;;18.51;28.65
77303;BME280;66363;49.828;7.856;2023-04-06T09:09:45;100414.50;;;19.59;25.27
77303;BME280;66363;49.828;7.856;2023-04-06T09:12:10;100410.34;;;19.65;29.62
77303;BME280;66363;49.828;7.856;2023-04-06T09:14:46;100407.22;;;20.20;25.90
77303;BME280;66363;49.828;7.856;2023-04-06T09:17:20;100412.50;;;19.61;28.09
77303;BME280;66363;49.828;7.856;2023-04-06T09:19:47;100411.69;;;19.43;26.61
77303;BME280;66363;49.828;7.856;2023-04-06T09:22:13;100405.56;;;17.62;28.04
77303;BME280;66363;49.828;7.856;2023-04-06T09:24:42;100410.41;;;18.68;27.66
77303;BME280;66363;49.828;7.856;2023-04-06T09:27:08;100400.94;;;19.43;25.41
77303;BME280;66363;49.828;7.856;2023-04-06T09:29:33;100403.53;;;19.53;26.96
77303;BME280;66363;49.828;7.856;2023-04-06T09:32:03;100397.63;;;21.00;23.50
77303;BME280;66363;49.828;7.856;2023-04-06T09:34:29;100398.00;;;22.32;23.06
77303;BME280;66363;49.828;7.856;2023-04-06T09:36:55;100392.72;;;22.61;22.13
77303;BME280;66363;49.828;7.856;2023-04-06T09:39:22;100386.97;;;21.55;23.36
77303;BME280;66363;49.828;7.856;2023-04-06T09:41:50;100388.78;;;22.41;21.46
77303;BME280;66363;49.828;7.856;2023-04-06T09:44:16;100387.06;;;21.78;23.35
77303;BME280;66363;49.828;7.856;2023-04-06T09:46:41;100391.13;;;19.60;25.18
77303;BME280;66363;49.828;7.856;2023-04-06T09:49:08;100381.22;;;20.61;26.66
77303;BME280;66363;49.828;7.856;2023-04-06T09:51:37;100379.56;;;21.17;23.45
77303;BME280;66363;49.828;7.856;2023-04-06T09:54:06;100378.19;;;19.97;25.67
77303;BME280;66363;49.828;7.856;2023-04-06T09:56:38;100376.00;;;19.41;26.96
77303;BME280;66363;49.828;7.856;2023-04-06T09:59:09;100381.09;;;19.78;26.48
77303;BME280;66363;49.828;7.856;2023-04-06T10:01:37;100374.31;;;19.14;26.73
77303;BME280;66363;49.828;7.856;2023-04-06T10:04:13;100373.00;;;19.70;27.05
77303;BME280;66363;49.828;7.856;2023-04-06T10:06:43;100373.16;;;19.43;27.55
77303;BME280;66363;49.828;7.856;2023-04-06T10:09:12;100372.69;;;18.95;28.41
77303;BME280;66363;49.828;7.856;2023-04-06T10:11:38;100361.16;;;18.05;29.29
77303;BME280;66363;49.828;7.856;2023-04-06T10:14:04;100361.47;;;17.27;30.18
77303;BME280;66363;49.828;7.856;2023-04-06T10:16:31;100352.66;;;17.82;30.49
77303;BME280;66363;49.828;7.856;2023-04-06T10:19:00;100360.38;;;18.75;29.28
77303;BME280;66363;49.828;7.856;2023-04-06T10:21:27;100360.22;;;18.59;29.14
77303;BME280;66363;49.828;7.856;2023-04-06T10:23:58;100357.13;;;18.54;28.69
77303;BME280;66363;49.828;7.856;2023-04-06T10:26:26;100349.78;;;19.77;27.70
77303;BME280;66363;49.828;7.856;2023-04-06T10:28:52;100343.50;;;20.69;25.34
77303;BME280;66363;49.828;7.856;2023-04-06T10:31:24;100337.78;;;21.68;24.94
77303;BME280;66363;49.828;7.856;2023-04-06T10:33:53;100343.84;;;21.70;24.00
77303;BME280;66363;49.828;7.856;2023-04-06T10:36:23;100338.13;;;21.65;24.00
77303;BME280;66363;49.828;7.856;2023-04-06T10:38:54;100337.81;;;22.84;22.06
77303;BME280;66363;49.828;7.856;2023-04-06T10:41:20;100331.84;;;23.55;20.09
77303;BME280;66363;49.828;7.856;2023-04-06T10:43:54;100332.75;;;24.64;18.65
77303;BME280;66363;49.828;7.856;2023-04-06T10:46:24;100329.19;;;23.18;18.00
77303;BME280;66363;49.828;7.856;2023-04-06T10:48:50;100332.25;;;23.00;18.47
77303;BME280;66363;49.828;7.856;2023-04-06T10:51:16;100323.31;;;23.44;21.13
77303;BME280;66363;49.828;7.856;2023-04-06T10:53:44;100317.06;;;23.87;18.02
77303;BME280;66363;49.828;7.856;2023-04-06T10:56:11;100325.03;;;23.74;17.47
77303;BME280;66363;49.828;7.856;2023-04-06T10:58:36;100317.81;;;23.81;16.27
77303;BME280;66363;49.828;7.856;2023-04-06T11:01:03;100312.47;;;23.44;16.33
77303;BME280;66363;49.828;7.856;2023-04-06T11:03:29;100318.00;;;23.80;16.39
77303;BME280;66363;49.828;7.856;2023-04-06T11:05:55;100302.84;;;24.36;15.81
77303;BME280;66363;49.828;7.856;2023-04-06T11:08:25;100319.44;;;23.61;16.02
77303;BME280;66363;49.828;7.856;2023-04-06T11:10:51;100310.88;;;24.72;17.45
77303;BME280;66363;49.828;7.856;2023-04-06T11:13:16;100303.94;;;24.42;15.79
77303;BME280;66363;49.828;7.856;2023-04-06T11:15:42;100296.88;;;23.90;15.87
77303;BME280;66363;49.828;7.856;2023-04-06T11:18:10;100305.09;;;23.08;16.79
77303;BME280;66363;49.828;7.856;2023-04-06T11:20:36;100290.00;;;22.53;16.74
77303;BME280;66363;49.828;7.856;2023-04-06T11:23:01;100305.72;;;22.04;16.93
77303;BME280;66363;49.828;7.856;2023-04-06T11:25:26;100299.47;;;22.04;18.06
77303;BME280;66363;49.828;7.856;2023-04-06T11:27:52;100288.00;;;20.99;19.02
77303;BME280;66363;49.828;7.856;2023-04-06T11:30:18;100287.69;;;22.65;17.58
77303;BME280;66363;49.828;7.856;2023-04-06T11:32:44;100280.25;;;20.96;18.46
77303;BME280;66363;49.828;7.856;2023-04-06T11:35:19;100284.13;;;21.96;17.81
77303;BME280;66363;49.828;7.856;2023-04-06T11:37:45;100273.53;;;22.17;17.83
77303;BME280;66363;49.828;7.856;2023-04-06T11:40:10;100280.78;;;20.43;18.78
77303;BME280;66363;49.828;7.856;2023-04-06T11:42:36;100268.19;;;19.85;20.00
77303;BME280;66363;49.828;7.856;2023-04-06T11:45:02;100275.66;;;20.07;20.56
77303;BME280;66363;49.828;7.856;2023-04-06T11:47:29;100275.53;;;19.32;20.32
77303;BME280;66363;49.828;7.856;2023-04-06T11:49:55;100266.50;;;19.08;20.12
77303;BME280;66363;49.828;7.856;2023-04-06T11:52:31;100277.47;;;18.88;21.08
77303;BME280;66363;49.828;7.856;2023-04-06T11:54:57;100278.00;;;18.30;21.56
77303;BME280;66363;49.828;7.856;2023-04-06T11:57:23;100277.63;;;18.61;21.79
77303;BME280;66363;49.828;7.856;2023-04-06T11:59:49;100272.56;;;18.84;22.17
77303;BME280;66363;49.828;7.856;2023-04-06T12:02:14;100254.75;;;19.43;20.71
77303;BME280;66363;49.828;7.856;2023-04-06T12:04:40;100241.47;;;19.49;20.22
77303;BME280;66363;49.828;7.856;2023-04-06T12:07:05;100275.78;;;18.61;21.25
77303;BME280;66363;49.828;7.856;2023-04-06T12:09:33;100225.31;;;18.81;20.50
77303;BME280;66363;49.828;7.856;2023-04-06T12:11:58;100245.31;;;19.89;19.69
77303;BME280;66363;49.828;7.856;2023-04-06T12:14:24;100264.75;;;20.25;19.62
77303;BME280;66363;49.828;7.856;2023-04-06T12:16:52;100220.25;;;19.38;20.16
77303;BME280;66363;49.828;7.856;2023-04-06T12:19:18;100216.41;;;20.23;20.05
77303;BME280;66363;49.828;7.856;2023-04-06T12:21:44;100260.34;;;20.89;18.68
77303;BME280;66363;49.828;7.856;2023-04-06T12:24:10;100267.44;;;20.25;20.27
77303;BME280;66363;49.828;7.856;2023-04-06T12:26:37;100246.50;;;19.44;20.17
77303;BME280;66363;49.828;7.856;2023-04-06T12:29:04;100217.78;;;18.85;20.45
77303;BME280;66363;49.828;7.856;2023-04-06T12:31:30;100213.34;;;19.94;20.52
77303;BME280;66363;49.828;7.856;2023-04-06T12:33:55;100259.00;;;19.53;19.97
77303;BME280;66363;49.828;7.856;2023-04-06T12:36:21;100215.16;;;18.67;21.61
77303;BME280;66363;49.828;7.856;2023-04-06T12:38:48;100257.03;;;18.70;21.55
77303;BME280;66363;49.828;7.856;2023-04-06T12:41:14;100219.25;;;18.79;21.26
77303;BME280;66363;49.828;7.856;2023-04-06T12:43:42;100200.66;;;18.86;20.86
77303;BME280;66363;49.828;7.856;2023-04-06T12:46:08;100205.56;;;18.47;22.85